createdAt,value
2019-01-09T00:01:33.850Z,100142.78
2019-01-09T00:04:03.641Z,100150.80
2019-01-09T00:06:33.462Z,100152.41
2019-01-09T00:09:04.908Z,100160.75
2019-01-09T00:11:34.771Z,100160.75
2019-01-09T00:14:04.770Z,100165.36
2019-01-09T00:16:35.563Z,100171.66
2019-01-09T00:19:05.343Z,100173.06
2019-01-09T00:21:35.094Z,100168.78
2019-01-09T00:24:04.989Z,100164.91
2019-01-09T00:26:35.010Z,100168.12
2019-01-09T00:29:04.774Z,100169.44
2019-01-09T00:31:34.543Z,100169.67
2019-01-09T00:34:04.691Z,100172.02
2019-01-09T00:36:34.451Z,100169.47
2019-01-09T02:55:39.932Z,100370.08
2019-01-09T02:58:09.558Z,100361.92
2019-01-09T03:00:39.189Z,100356.06
2019-01-09T03:03:08.746Z,100366.98
2019-01-09T03:05:38.326Z,100359.95
2019-01-09T03:08:07.888Z,100364.78
2019-01-09T03:10:37.483Z,100373.46
2019-01-09T03:13:07.068Z,100364.05
2019-01-09T03:15:36.776Z,100372.61
2019-01-09T03:18:06.406Z,100369.11
2019-01-09T03:20:36.257Z,100386.20
2019-01-09T03:23:05.805Z,100386.59
2019-01-09T03:25:35.367Z,100381.05
2019-01-09T03:28:05.023Z,100385.10
2019-01-09T03:30:34.584Z,100371.59
2019-01-09T03:33:04.203Z,100377.54
2019-01-09T03:35:34.139Z,100386.47
2019-01-09T03:38:03.706Z,100377.02
2019-01-09T03:40:33.259Z,100388.25
2019-01-09T03:43:02.834Z,100386.01
2019-01-09T03:45:32.374Z,100386.91
2019-01-09T03:48:02.001Z,100393.28
2019-01-09T03:50:31.574Z,100390.71
2019-01-09T03:53:01.125Z,100396.63
2019-01-09T03:55:30.764Z,100395.31
2019-01-09T03:58:00.342Z,100409.21
2019-01-09T04:00:29.917Z,100400.71
2019-01-09T04:02:59.538Z,100407.14
2019-01-09T04:05:29.093Z,100409.39
2019-01-09T04:07:58.709Z,100409.59
2019-01-09T04:10:28.257Z,100409.48
2019-01-09T04:12:57.844Z,100414.80
2019-01-09T04:15:27.392Z,100435.47
2019-01-09T04:17:56.969Z,100441.44
2019-01-09T04:20:26.522Z,100425.68
2019-01-09T04:22:56.050Z,100433.25
2019-01-09T04:25:25.626Z,100428.38
2019-01-09T04:27:55.175Z,100431.20
2019-01-09T04:30:24.741Z,100435.91
2019-01-09T04:32:54.281Z,100431.83
2019-01-09T04:35:23.850Z,100426.45
2019-01-09T04:37:53.449Z,100440.52
2019-01-09T04:40:23.015Z,100445.20
2019-01-09T04:42:52.593Z,100446.66
2019-01-09T04:45:22.191Z,100444.44
2019-01-09T04:47:51.757Z,100461.70
2019-01-09T04:50:21.316Z,100459.27
2019-01-09T04:52:50.882Z,100459.30
2019-01-09T04:55:20.446Z,100470.39
2019-01-09T04:57:50.033Z,100464.99
2019-01-09T05:00:19.731Z,100457.75
2019-01-09T05:02:49.365Z,100457.80
2019-01-09T05:05:18.960Z,100466.55
2019-01-09T05:07:48.593Z,100462.45
2019-01-09T05:10:18.161Z,100463.56
2019-01-09T05:12:47.750Z,100467.75
2019-01-09T05:15:17.300Z,100465.38
2019-01-09T05:17:46.875Z,100469.31
2019-01-09T05:20:16.451Z,100466.10
2019-01-09T05:22:46.007Z,100484.08
2019-01-09T05:25:15.581Z,100482.25
2019-01-09T05:27:45.139Z,100481.80
2019-01-09T05:30:14.793Z,100469.67
2019-01-09T05:32:44.380Z,100473.45
2019-01-09T05:35:13.924Z,100476.99
2019-01-09T05:37:43.510Z,100480.59
2019-01-09T05:40:13.073Z,100481.03
2019-01-09T05:42:42.680Z,100484.30
2019-01-09T05:45:12.282Z,100493.47
2019-01-09T05:47:41.906Z,100492.75
2019-01-09T05:50:11.561Z,100489.66
2019-01-09T05:52:41.111Z,100498.28
2019-01-09T05:55:10.779Z,100499.28
2019-01-09T05:57:40.357Z,100502.73
2019-01-09T06:00:10.145Z,100505.12
2019-01-09T06:02:39.735Z,100506.11
2019-01-09T06:05:09.405Z,100514.90
2019-01-09T06:07:39.040Z,100512.13
2019-01-09T06:10:08.689Z,100506.14
2019-01-09T06:12:38.286Z,100514.13
2019-01-09T06:15:08.129Z,100515.91
2019-01-09T06:17:37.696Z,100514.47
2019-01-09T06:20:08.252Z,100526.16
2019-01-09T06:22:38.037Z,100525.70
2019-01-09T06:25:07.817Z,100531.16
2019-01-09T06:27:37.582Z,100532.69
2019-01-09T06:30:07.282Z,100536.06
2019-01-09T06:32:36.864Z,100544.05
2019-01-09T06:35:06.488Z,100552.02
2019-01-09T06:37:36.066Z,100547.55
2019-01-09T06:40:05.909Z,100550.12
2019-01-09T06:42:35.511Z,100556.19
2019-01-09T06:45:05.182Z,100568.86
2019-01-09T06:47:34.772Z,100562.78
2019-01-09T06:50:07.468Z,100562.11
2019-01-09T06:52:37.088Z,100569.58
2019-01-09T06:55:06.723Z,100568.55
2019-01-09T06:57:36.322Z,100575.84
2019-01-09T07:00:07.137Z,100587.25
2019-01-09T07:02:36.758Z,100586.91
2019-01-09T07:05:06.765Z,100590.59
2019-01-09T07:07:36.437Z,100601.59
2019-01-09T07:10:06.425Z,100606.52
2019-01-09T07:12:36.001Z,100603.71
2019-01-09T07:15:11.589Z,100604.17
2019-01-09T07:17:39.120Z,100611.60
2019-01-09T07:20:08.757Z,100613.87
2019-01-09T07:22:38.352Z,100613.80
2019-01-09T07:25:07.994Z,100616.69
2019-01-09T07:27:37.644Z,100619.18
2019-01-09T07:30:08.232Z,100620.97
2019-01-09T07:32:37.781Z,100624.23
2019-01-09T07:35:07.498Z,100629.63
2019-01-09T07:37:44.888Z,100633.84
2019-01-09T07:40:08.462Z,100630.49
2019-01-09T07:42:38.052Z,100637.20
2019-01-09T07:45:11.530Z,100643.96
2019-01-09T07:47:41.082Z,100648.27
2019-01-09T07:50:10.750Z,100644.78
2019-01-09T07:52:40.299Z,100634.99
2019-01-09T07:55:09.939Z,100659.45
2019-01-09T07:57:39.549Z,100655.39
2019-01-09T08:00:10.670Z,100666.50
2019-01-09T08:02:40.512Z,100675.56
2019-01-09T08:05:10.098Z,100668.19
2019-01-09T08:07:39.652Z,100678.43
2019-01-09T08:10:10.292Z,100690.80
2019-01-09T08:12:39.852Z,100679.28
2019-01-09T08:15:10.028Z,100687.86
2019-01-09T08:17:39.685Z,100695.08
2019-01-09T08:20:09.756Z,100704.68
2019-01-09T08:22:39.370Z,100715.97
2019-01-09T08:25:08.984Z,100725.29
2019-01-09T08:27:38.602Z,100727.05
2019-01-09T08:30:09.998Z,100729.89
2019-01-09T08:32:39.674Z,100735.66
2019-01-09T08:35:09.330Z,100732.91
2019-01-09T08:37:38.916Z,100742.53
2019-01-09T08:40:09.567Z,100742.98
2019-01-09T08:42:39.301Z,100740.06
2019-01-09T08:45:09.102Z,100745.13
2019-01-09T08:47:38.776Z,100754.45
2019-01-09T08:50:09.363Z,100758.39
2019-01-09T08:52:38.992Z,100761.05
2019-01-09T08:55:09.284Z,100771.53
2019-01-09T08:57:39.554Z,100776.14
2019-01-09T09:00:10.929Z,100785.30
2019-01-09T09:02:40.588Z,100771.02
2019-01-09T09:05:10.316Z,100785.73
2019-01-09T09:07:40.179Z,100786.37
2019-01-09T09:10:12.012Z,100791.67
2019-01-09T09:12:41.841Z,100797.18
2019-01-09T09:15:13.214Z,100792.75
2019-01-09T09:17:42.915Z,100794.82
2019-01-09T09:20:12.710Z,100799.70
2019-01-09T09:22:42.344Z,100796.59
2019-01-09T09:25:11.990Z,100801.53
2019-01-09T09:27:41.570Z,100801.91
2019-01-09T09:30:12.213Z,100802.28
2019-01-09T09:32:41.836Z,100802.22
2019-01-09T09:35:11.484Z,100808.95
2019-01-09T09:37:41.130Z,100809.21
2019-01-09T09:40:13.524Z,100820.91
2019-01-09T09:42:43.163Z,100819.98
2019-01-09T09:45:12.968Z,100826.34
2019-01-09T09:47:42.635Z,100834.38
2019-01-09T09:50:13.356Z,100825.77
2019-01-09T09:52:42.982Z,100844.34
2019-01-09T09:55:13.254Z,100839.17
2019-01-09T09:57:43.084Z,100840.13
2019-01-09T10:00:16.389Z,100844.08
2019-01-09T10:02:46.054Z,100848.06
2019-01-09T10:05:15.720Z,100850.98
2019-01-09T10:07:45.412Z,100851.77
2019-01-09T10:10:15.894Z,100864.91
2019-01-09T10:12:45.503Z,100856.50
2019-01-09T10:15:15.281Z,100860.73
2019-01-09T10:17:44.940Z,100864.27
2019-01-09T10:20:15.088Z,100868.92
2019-01-09T10:22:45.426Z,100871.72
2019-01-09T10:25:15.108Z,100879.32
2019-01-09T10:27:44.719Z,100874.94
2019-01-09T10:30:16.541Z,100880.23
2019-01-09T10:32:46.134Z,100897.13
2019-01-09T10:35:15.922Z,100879.52
2019-01-09T10:37:46.614Z,100884.02
2019-01-09T10:40:17.486Z,100887.73
2019-01-09T10:42:47.161Z,100883.12
2019-01-09T10:45:19.045Z,100885.16
2019-01-09T10:47:49.066Z,100892.59
2019-01-09T10:50:18.845Z,100901.30
2019-01-09T10:52:48.744Z,100899.30
2019-01-09T10:55:19.302Z,100903.13
2019-01-09T10:57:49.021Z,100906.49
2019-01-09T11:00:24.521Z,100906.56
2019-01-09T11:02:54.278Z,100904.22
2019-01-09T11:05:24.416Z,100913.22
2019-01-09T11:07:54.115Z,100915.08
2019-01-09T11:10:23.867Z,100909.52
2019-01-09T11:12:53.519Z,100915.05
2019-01-09T11:15:23.267Z,100914.06
2019-01-09T11:17:52.941Z,100916.14
2019-01-09T11:20:22.662Z,100916.53
2019-01-09T11:23:00.322Z,100920.44
2019-01-09T11:25:30.118Z,100922.17
2019-01-09T11:27:59.811Z,100928.70
2019-01-09T11:30:29.498Z,100922.41
2019-01-09T11:32:59.313Z,100923.73
2019-01-09T11:35:28.973Z,100912.47
2019-01-09T11:37:58.701Z,100921.01
2019-01-09T11:40:28.447Z,100934.94
2019-01-09T11:42:58.171Z,100933.70
2019-01-09T11:45:27.897Z,100936.00
2019-01-09T11:47:57.575Z,100935.78
2019-01-09T11:50:27.216Z,100940.95
2019-01-09T11:52:56.915Z,100941.25
2019-01-09T11:55:26.817Z,100945.50
2019-01-09T11:57:56.394Z,100948.91
2019-01-09T12:00:28.069Z,100943.20
2019-01-09T12:02:57.816Z,100947.19
2019-01-09T12:05:27.492Z,100942.81
2019-01-09T12:07:57.184Z,100940.06
2019-01-09T12:10:30.152Z,100946.56
2019-01-09T12:12:58.378Z,100952.14
2019-01-09T12:15:28.037Z,100950.67
2019-01-09T12:17:57.619Z,100944.43
2019-01-09T12:20:27.203Z,100948.09
2019-01-09T12:22:56.823Z,100954.86
2019-01-09T12:25:26.509Z,100950.31
2019-01-09T12:27:56.106Z,100949.56
2019-01-09T12:30:27.773Z,100967.17
2019-01-09T12:32:57.684Z,100958.48
2019-01-09T12:35:27.445Z,100957.55
2019-01-09T12:37:57.013Z,100962.47
2019-01-09T12:40:26.607Z,100966.73
2019-01-09T12:42:56.416Z,100959.45
2019-01-09T12:45:25.938Z,100976.31
2019-01-09T12:47:55.564Z,100985.89
2019-01-09T12:50:26.025Z,100981.20
2019-01-09T12:52:55.696Z,100990.22
2019-01-09T12:55:25.427Z,100999.73
2019-01-09T12:57:54.996Z,100989.12
2019-01-09T13:00:26.817Z,100992.09
2019-01-09T13:02:56.575Z,101004.56
2019-01-09T13:05:26.237Z,101013.58
2019-01-09T13:07:55.844Z,101007.22
2019-01-09T13:10:25.571Z,101011.59
2019-01-09T13:12:55.163Z,101014.61
2019-01-09T13:15:24.831Z,101012.44
2019-01-09T13:17:54.510Z,101012.75
2019-01-09T13:20:31.770Z,101018.11
2019-01-09T13:23:01.515Z,101029.20
2019-01-09T13:25:31.151Z,101034.02
2019-01-09T13:28:00.769Z,101039.82
2019-01-09T13:30:30.439Z,101035.39
2019-01-09T13:33:00.098Z,101043.78
2019-01-09T13:35:29.811Z,101045.24
2019-01-09T13:38:17.096Z,101046.95
2019-01-09T13:40:46.762Z,101051.77
2019-01-09T13:43:25.607Z,101068.78
2019-01-09T13:45:55.348Z,101082.05
2019-01-09T13:48:25.019Z,101066.54
2019-01-09T13:50:54.717Z,101087.70
2019-01-09T13:53:24.377Z,101091.41
2019-01-09T13:55:53.952Z,101104.19
2019-01-09T13:58:23.631Z,101109.20
2019-01-09T14:00:53.296Z,101105.41
2019-01-09T14:03:22.902Z,101102.69
2019-01-09T14:05:52.500Z,101114.69
2019-01-09T14:08:22.142Z,101110.31
2019-01-09T14:10:51.817Z,101126.05
2019-01-09T14:13:21.415Z,101122.58
2019-01-09T14:15:51.037Z,101141.50
2019-01-09T14:18:20.616Z,101126.18
2019-01-09T14:20:50.412Z,101133.62
2019-01-09T14:23:20.019Z,101135.37
2019-01-09T14:25:49.703Z,101143.64
2019-01-09T14:28:19.254Z,101150.97
2019-01-09T14:30:48.949Z,101144.41
2019-01-09T14:33:18.501Z,101152.52
2019-01-09T14:35:48.165Z,101160.53
2019-01-09T14:38:17.788Z,101157.61
2019-01-09T14:40:47.430Z,101161.94
2019-01-09T14:43:17.035Z,101164.45
2019-01-09T14:45:46.666Z,101170.19
2019-01-09T14:48:16.318Z,101175.36
2019-01-09T14:50:47.603Z,101169.89
2019-01-09T14:53:17.457Z,101177.55
2019-01-09T14:55:47.107Z,101188.92
2019-01-09T14:58:16.768Z,101180.91
2019-01-09T15:00:49.953Z,101179.92
2019-01-09T15:03:19.671Z,101182.34
2019-01-09T15:05:49.312Z,101187.38
2019-01-09T15:08:18.854Z,101184.68
2019-01-09T15:10:48.542Z,101185.73
2019-01-09T15:13:18.197Z,101189.47
2019-01-09T15:15:47.880Z,101189.71
2019-01-09T15:18:17.529Z,101183.56
2019-01-09T15:20:47.334Z,101189.99
2019-01-09T15:23:17.176Z,101191.91
2019-01-09T15:25:46.854Z,101189.12
2019-01-09T15:28:16.493Z,101195.19
2019-01-09T15:30:46.113Z,101196.52
2019-01-09T15:33:15.733Z,101208.88
2019-01-09T15:35:45.432Z,101206.86
2019-01-09T15:38:15.027Z,101203.36
2019-01-09T15:40:44.601Z,101205.99
2019-01-09T15:43:14.222Z,101211.05
2019-01-09T15:45:43.796Z,101213.95
2019-01-09T15:48:13.472Z,101212.86
2019-01-09T15:50:43.147Z,101224.25
2019-01-09T15:53:12.833Z,101241.56
2019-01-09T15:55:42.408Z,101231.23
2019-01-09T15:58:12.001Z,101235.33
2019-01-09T16:00:44.206Z,101238.08
2019-01-09T16:03:13.894Z,101245.89
2019-01-09T16:05:45.670Z,101250.01
2019-01-09T16:08:15.034Z,101243.98
2019-01-09T16:10:44.665Z,101247.13
2019-01-09T16:13:14.268Z,101256.91
2019-01-09T16:15:43.842Z,101261.56
2019-01-09T16:18:13.526Z,101259.05
2019-01-09T16:20:43.224Z,101263.81
2019-01-09T16:23:12.865Z,101265.22
2019-01-09T16:25:42.442Z,101272.64
2019-01-09T16:28:12.036Z,101270.82
2019-01-09T16:30:49.656Z,101266.84
2019-01-09T16:33:19.282Z,101282.00
2019-01-09T16:35:48.897Z,101276.56
2019-01-09T16:38:18.474Z,101275.78
2019-01-09T16:40:48.072Z,101275.48
2019-01-09T16:43:17.683Z,101284.19
2019-01-09T16:45:47.413Z,101291.38
2019-01-09T16:48:17.005Z,101302.02
2019-01-09T16:50:46.657Z,101300.36
2019-01-09T16:53:16.257Z,101300.70
2019-01-09T16:55:45.865Z,101303.45
2019-01-09T16:58:15.604Z,101311.77
2019-01-09T17:00:45.371Z,101312.86
2019-01-09T17:03:14.988Z,101325.70
2019-01-09T17:05:44.666Z,101328.19
2019-01-09T17:08:14.346Z,101331.20
2019-01-09T17:10:44.204Z,101325.88
2019-01-09T17:13:13.775Z,101334.98
2019-01-09T17:15:43.379Z,101346.39
2019-01-09T17:18:13.021Z,101341.02
2019-01-09T17:20:42.628Z,101346.63
2019-01-09T17:23:12.335Z,101356.63
2019-01-09T17:25:41.940Z,101354.48
2019-01-09T17:28:12.075Z,101360.83
2019-01-09T17:30:41.858Z,101360.42
2019-01-09T17:33:11.489Z,101367.75
2019-01-09T17:35:41.149Z,101375.98
2019-01-09T17:38:10.842Z,101391.12
2019-01-09T17:40:41.396Z,101389.24
2019-01-09T17:43:11.098Z,101395.78
2019-01-09T17:45:40.902Z,101394.91
2019-01-09T17:48:10.500Z,101397.80
2019-01-09T17:50:40.611Z,101404.25
2019-01-09T17:53:10.262Z,101417.53
2019-01-09T17:55:39.904Z,101413.16
2019-01-09T17:58:09.541Z,101420.66
2019-01-09T18:00:41.421Z,101422.56
2019-01-09T18:03:11.158Z,101424.17
2019-01-09T18:05:40.828Z,101429.82
2019-01-09T18:08:11.193Z,101434.96
2019-01-09T18:10:49.769Z,101442.38
2019-01-09T18:13:12.483Z,101450.34
2019-01-09T18:15:42.190Z,101444.22
2019-01-09T18:18:11.885Z,101452.20
2019-01-09T18:20:41.575Z,101451.66
2019-01-09T18:23:11.285Z,101456.64
2019-01-09T18:26:10.284Z,101457.33
2019-01-09T18:28:39.969Z,101466.77
2019-01-09T18:32:12.335Z,101467.56
2019-01-09T18:35:01.815Z,101464.30
2019-01-09T18:37:57.772Z,101462.09
2019-01-09T18:40:59.284Z,101466.08
2019-01-09T18:43:59.476Z,101474.44
2019-01-09T18:46:58.241Z,101483.87
2019-01-09T18:50:09.449Z,101483.17
2019-01-09T18:53:00.120Z,101489.50
2019-01-09T18:55:29.811Z,101498.25
2019-01-09T18:57:59.499Z,101499.01
2019-01-09T19:00:29.216Z,101493.10
2019-01-09T19:02:58.809Z,101508.08
2019-01-09T19:05:28.577Z,101510.23
2019-01-09T19:07:58.265Z,101512.38
2019-01-09T19:10:28.199Z,101513.19
2019-01-09T19:12:57.973Z,101518.66
2019-01-09T19:15:27.627Z,101526.58
2019-01-09T19:17:57.294Z,101520.15
2019-01-09T19:20:26.967Z,101526.95
2019-01-09T19:22:56.700Z,101530.77
2019-01-09T19:25:26.428Z,101531.27
2019-01-09T19:27:56.156Z,101529.63
2019-01-09T19:30:30.359Z,101539.73
2019-01-09T19:33:00.468Z,101545.37
2019-01-09T19:35:30.112Z,101549.52
2019-01-09T19:37:59.729Z,101542.19
2019-01-09T19:40:29.385Z,101551.14
2019-01-09T19:42:59.077Z,101551.31
2019-01-09T19:45:28.867Z,101559.11
2019-01-09T19:47:58.503Z,101562.94
2019-01-09T19:50:28.274Z,101565.84
2019-01-09T19:52:57.892Z,101564.95
2019-01-09T19:55:28.067Z,101564.59
2019-01-09T19:57:57.753Z,101577.54
2019-01-09T20:00:27.450Z,101574.04
2019-01-09T20:02:57.539Z,101577.38
2019-01-09T20:05:27.311Z,101580.19
2019-01-09T20:07:57.720Z,101578.38
2019-01-09T20:10:27.966Z,101584.47
2019-01-09T20:12:57.640Z,101588.31
2019-01-09T20:15:27.357Z,101590.84
2019-01-09T20:17:57.168Z,101587.83
2019-01-09T20:20:26.906Z,101596.59
2019-01-09T20:22:56.479Z,101596.11
2019-01-09T20:25:26.208Z,101606.08
2019-01-09T20:27:55.969Z,101607.57
2019-01-09T20:30:27.864Z,101624.98
2019-01-09T20:32:57.655Z,101616.17
2019-01-09T20:35:27.626Z,101626.98
2019-01-09T20:37:57.405Z,101621.36
2019-01-09T20:40:27.319Z,101629.12
2019-01-09T20:42:57.111Z,101631.29
2019-01-09T20:45:26.785Z,101640.58
2019-01-09T20:47:56.553Z,101633.30
2019-01-09T20:50:28.680Z,101634.59
2019-01-09T20:52:58.442Z,101632.78
2019-01-09T20:55:28.133Z,101637.92
2019-01-09T20:57:57.857Z,101632.45
2019-01-09T21:00:29.224Z,101631.28
2019-01-09T21:03:02.100Z,101644.55
2019-01-09T21:05:37.499Z,101642.39
2019-01-09T21:08:07.737Z,101639.73
2019-01-09T21:10:37.461Z,101649.70
2019-01-09T21:13:07.292Z,101655.33
2019-01-09T21:15:37.123Z,101665.45
2019-01-09T21:18:06.957Z,101666.59
2019-01-09T21:20:36.534Z,101668.92
2019-01-09T21:23:06.255Z,101673.42
2019-01-09T21:25:35.948Z,101673.06
2019-01-09T21:28:06.052Z,101683.67
2019-01-09T21:30:35.818Z,101680.86
2019-01-09T21:33:05.674Z,101680.70
2019-01-09T21:35:35.370Z,101681.04
2019-01-09T21:38:05.161Z,101680.87
2019-01-09T21:40:34.867Z,101682.05
2019-01-09T21:43:04.473Z,101687.00
2019-01-09T21:45:34.115Z,101690.00
2019-01-09T21:48:03.919Z,101691.50
2019-01-09T21:50:33.655Z,101689.84
2019-01-09T21:53:03.418Z,101697.61
2019-01-09T21:55:33.427Z,101707.41
2019-01-09T21:58:03.032Z,101704.58
2019-01-09T22:00:35.848Z,101711.37
2019-01-09T22:03:05.624Z,101721.65
2019-01-09T22:05:35.351Z,101715.88
2019-01-09T22:08:05.061Z,101714.38
2019-01-09T22:10:36.266Z,101718.84
2019-01-09T22:13:07.050Z,101725.81
2019-01-09T22:15:36.667Z,101722.48
2019-01-09T22:18:06.372Z,101735.73
2019-01-09T22:20:36.101Z,101725.29
2019-01-09T22:23:05.771Z,101731.77
2019-01-09T22:25:35.422Z,101739.40
2019-01-09T22:28:05.183Z,101747.53
2019-01-09T22:30:34.914Z,101747.18
2019-01-09T22:33:04.707Z,101744.86
2019-01-09T22:35:41.325Z,101749.48
2019-01-09T22:38:05.783Z,101749.20
2019-01-09T22:40:35.478Z,101747.02
2019-01-09T22:43:05.277Z,101758.45
2019-01-09T22:45:34.936Z,101754.27
2019-01-09T22:48:04.776Z,101759.41
2019-01-09T22:50:34.471Z,101760.73
2019-01-09T22:53:04.134Z,101768.52
2019-01-09T22:55:33.845Z,101767.36
2019-01-09T22:58:03.511Z,101765.72
2019-01-09T23:00:54.908Z,101772.48
2019-01-09T23:03:24.746Z,101765.20
2019-01-09T23:05:54.485Z,101769.68
2019-01-09T23:08:24.033Z,101777.62
2019-01-09T23:10:55.180Z,101782.13
2019-01-09T23:13:25.047Z,101782.63
2019-01-09T23:15:54.753Z,101777.52
2019-01-09T23:18:24.421Z,101779.83
2019-01-09T23:20:54.024Z,101773.73
2019-01-09T23:23:26.031Z,101777.46
2019-01-09T23:25:56.510Z,101773.66
2019-01-09T23:28:37.286Z,101780.85
2019-01-09T23:31:13.168Z,101776.50
2019-01-09T23:33:50.798Z,101778.70
2019-01-09T23:36:23.010Z,101787.65
2019-01-09T23:38:53.333Z,101775.23
2019-01-09T23:41:23.031Z,101779.34
2019-01-09T23:43:52.699Z,101785.13
2019-01-09T23:46:22.319Z,101788.10
2019-01-09T23:48:51.954Z,101789.46
2019-01-09T23:51:21.564Z,101790.25
2019-01-09T23:53:51.216Z,101787.44
2019-01-09T23:56:20.887Z,101784.45
2019-01-09T23:58:50.497Z,101789.91
